Aeroporto :
LOGIN :

Iscrizione | Disclaimer

   EN    FR    IT 

 










Sommario :    VFR   VFR Marginale   IFR   IFR Intensivo   IFR Molto Intensivo
Visibilità : 
Base nubi : 
>= 8 km
>= 3000ft
5 / 8 km
1000 / 3000 ft
1500m / 5 km
500 / 1000 ft
800 / 1500m
200 / 500 ft
< 800m
< 200 ft
Simboli :   Temporali  Nebbia  Neve Forte  Precipitazioni Forti  Vento > 20 kt
SIGMETs :   Varie  Temporali  Ghiacco  Turbolenza  Onda orograficha  Ceneri Vulcaniche






- Altitudine del aeroporto : 353 ft
- Codice IATA : LIN


LIML - Milano Linate

ULTIMO METAR :
  • 300250Z AUTO VRB02KT 9999 FEW074/// OVC093/// 16/13 Q1018

METARs OBSOLETI :
  • 300220Z AUTO 36003KT 310V040 9999 OVC092/// 16/13 Q1018
  • 300150Z AUTO 08003KT 9999 -RA OVC091/// 16/12 Q1019
  • 300120Z AUTO VRB01KT 9999 OVC091/// 15/14 Q1019
  • 300050Z AUTO 27002KT 9999 -RA OVC090/// 15/13 Q1019

TAF TAF LIML
Valido dal 29 a 18 ore il 30 a 18 ore UTC


291700Z 2918/3018 VRB05KT 9999 FEW030
TEMPO 3016/3018 SHRA



MetMap, La meteo Aeronautica in un colpo d'occhio ! - Copyright ORBIFLY Dicembre 2007 - Disclaimer

ORBIFLY MET'MAP TEAM :

Programmazione e sviluppo : Alexandra Zaïnal
Concezione : Baudouin d'Aumeries
Aiuto per la programmazione : Marc-Olivier Méhu
Supporto tecnico e logistico : Manuel Goepfert
Aiuto per la traduzione : Arnaldo La Scala

Contatto : metmap@orbifly.com




FONTI E CREDITI :

   NOAA